Time;durP1;ratioP1;P1;durP2;ratioP2;P2;SDS_P1;SDS_P2;PMS_P1;PMS_P2;Temp;Humidity;BMP_temperature;BMP_pressure;BME280_temperature;BME280_humidity;BME280_pressure;Samples;Min_cycle;Max_cycle;Signal;HPM_P1;HPM_P2
2023/04/25 00:00:28;;;;;;;;;;;;;;;;;;4357681;32;20335;-85
2023/04/25 00:02:53;;;;;;;;;;;;;;;;;;4357657;32;19942;-86
2023/04/25 00:05:19;;;;;;;;;;;;;;;;;;4357836;32;19939;-86
2023/04/25 00:07:44;;;;;;;;;;;;;;;;;;4357978;32;19955;-86
2023/04/25 00:10:10;;;;;;;;;;;;;;;;;;4357751;32;19942;-85
2023/04/25 00:12:35;;;;;;;;;;;;;;;;;;4347946;33;19934;-85
2023/04/25 00:15:01;;;;;;;;;;;;;;;;;;4363350;32;19973;-86
2023/04/25 00:17:26;;;;;;;;;;;;;;;;;;4364500;32;19939;-85
2023/04/25 00:19:52;;;;;;;;;;;;;;;;;;4373806;32;19973;-85
2023/04/25 00:22:17;;;;;;;;;;;;;;;;;;4363138;32;19931;-85
2023/04/25 00:24:42;;;;;;;;;;;;;;;;;;4363699;32;20343;-85
2023/04/25 00:27:07;;;;;;;;;;;;;;;;;;4363009;32;19950;-85
2023/04/25 00:29:33;;;;;;;;;;;;;;;;;;4362918;32;19950;-86
2023/04/25 00:31:58;;;;;;;;;;;;;;;;;;4362274;32;20000;-85
2023/04/25 00:34:23;;;;;;;;;;;;;;;;;;4360757;32;19954;-85
2023/04/25 00:36:48;;;;;;;;;;;;;;;;;;4360563;32;19951;-86
2023/04/25 00:39:13;;;;;;;;;;;;;;;;;;4360693;32;20005;-85
2023/04/25 00:41:38;;;;;;;;;;;;;;;;;;4360878;32;19993;-85
2023/04/25 00:44:04;;;;;;;;;;;;;;;;;;4373110;32;19924;-84
2023/04/25 00:46:29;;;;;;;;;;;;;;;;;;4372903;32;19928;-85
2023/04/25 00:48:54;;;;;;;;;;;;;;;;;;4361196;32;19947;-85
2023/04/25 00:51:19;;;;;;;;;;;;;;;;;;4352410;32;20033;-85
2023/04/25 00:53:44;;;;;;;;;;;;;;;;;;4361618;32;19990;-84
2023/04/25 00:56:09;;;;;;;;;;;;;;;;;;4362124;32;19974;-85
2023/04/25 00:58:34;;;;;;;;;;;;;;;;;;4361891;32;19977;-85
2023/04/25 01:01:00;;;;;;;;;;;;;;;;;;4361296;32;19950;-85
2023/04/25 01:03:25;;;;;;;;;;;;;;;;;;4360660;32;19999;-85
2023/04/25 01:05:51;;;;;;;;;;;;;;;;;;4360353;32;20001;-85
2023/04/25 01:08:16;;;;;;;;;;;;;;;;;;4349417;33;19973;-86
2023/04/25 01:10:41;;;;;;;;;;;;;;;;;;4350316;32;20252;-85
2023/04/25 01:13:06;;;;;;;;;;;;;;;;;;4361422;32;19981;-85
2023/04/25 01:15:31;;;;;;;;;;;;;;;;;;4360458;32;20364;-85
2023/04/25 01:17:56;;;;;;;;;;;;;;;;;;4360490;32;20324;-86
2023/04/25 01:20:22;;;;;;;;;;;;;;;;;;4360888;32;19969;-85
2023/04/25 01:22:47;;;;;;;;;;;;;;;;;;4357869;32;19982;-85
2023/04/25 01:25:12;;;;;;;;;;;;;;;;;;4362961;32;19935;-87
2023/04/25 01:27:38;;;;;;;;;;;;;;;;;;4361723;32;19966;-85
2023/04/25 01:30:03;;;;;;;;;;;;;;;;;;4360710;32;20368;-85
2023/04/25 01:32:28;;;;;;;;;;;;;;;;;;4362936;32;20405;-85
2023/04/25 01:34:53;;;;;;;;;;;;;;;;;;4376365;32;19993;-85
2023/04/25 01:37:18;;;;;;;;;;;;;;;;;;4364281;32;20005;-85
2023/04/25 01:39:43;;;;;;;;;;;;;;;;;;4361377;32;19977;-86
2023/04/25 01:42:08;;;;;;;;;;;;;;;;;;4361292;32;20340;-85
2023/04/25 01:44:33;;;;;;;;;;;;;;;;;;4360628;32;19943;-86
2023/04/25 01:46:58;;;;;;;;;;;;;;;;;;4360752;32;20028;-86
2023/04/25 01:49:24;;;;;;;;;;;;;;;;;;4349769;32;20320;-86
2023/04/25 01:51:49;;;;;;;;;;;;;;;;;;4360797;32;19984;-87
2023/04/25 01:54:14;;;;;;;;;;;;;;;;;;4360305;32;19950;-86
2023/04/25 01:56:39;;;;;;;;;;;;;;;;;;4360309;32;20343;-86
2023/04/25 01:59:05;;;;;;;;;;;;;;;;;;4360186;32;19938;-86
2023/04/25 02:01:30;;;;;;;;;;;;;;;;;;4361921;32;19939;-86
2023/04/25 02:03:55;;;;;;;;;;;;;;;;;;4361122;32;20026;-86
2023/04/25 02:06:20;;;;;;;;;;;;;;;;;;4362139;32;19961;-86
2023/04/25 02:08:45;;;;;;;;;;;;;;;;;;4363943;32;19935;-86
2023/04/25 02:11:11;;;;;;;;;;;;;;;;;;4363597;32;19945;-86
2023/04/25 02:13:36;;;;;;;;;;;;;;;;;;4363766;32;19950;-86
2023/04/25 02:16:01;;;;;;;;;;;;;;;;;;4363683;32;19938;-86
2023/04/25 02:18:26;;;;;;;;;;;;;;;;;;4369787;32;19949;-86
2023/04/25 02:20:51;;;;;;;;;;;;;;;;;;4355850;32;19939;-86
2023/04/25 02:23:16;;;;;;;;;;;;;;;;;;4360809;32;19998;-86
2023/04/25 02:25:41;;;;;;;;;;;;;;;;;;4361186;32;19949;-87
2023/04/25 02:28:06;;;;;;;;;;;;;;;;;;4369907;32;20260;-87
2023/04/25 02:30:31;;;;;;;;;;;;;;;;;;4366088;32;19935;-86
2023/04/25 02:32:56;;;;;;;;;;;;;;;;;;4365990;32;20018;-86
2023/04/25 02:35:22;;;;;;;;;;;;;;;;;;4366300;32;19946;-86
2023/04/25 02:37:47;;;;;;;;;;;;;;;;;;4367548;32;19943;-85
2023/04/25 02:40:12;;;;;;;;;;;;;;;;;;4366281;32;19935;-84
2023/04/25 02:42:37;;;;;;;;;;;;;;;;;;4367461;32;19957;-85
2023/04/25 02:45:02;;;;;;;;;;;;;;;;;;4356373;32;19939;-84
2023/04/25 02:47:27;;;;;;;;;;;;;;;;;;4367965;32;19939;-85
2023/04/25 02:49:52;;;;;;;;;;;;;;;;;;4373980;32;19919;-86
2023/04/25 02:52:17;;;;;;;;;;;;;;;;;;4363868;32;19954;-85
2023/04/25 02:54:42;;;;;;;;;;;;;;;;;;4347822;33;19939;-86
2023/04/25 02:57:08;;;;;;;;;;;;;;;;;;4346558;33;19987;-86
2023/04/25 02:59:33;;;;;;;;;;;;;;;;;;4347024;33;19934;-86
2023/04/25 03:01:58;;;;;;;;;;;;;;;;;;4346391;33;19939;-86
2023/04/25 03:04:23;;;;;;;;;;;;;;;;;;4348580;33;19969;-85
2023/04/25 03:06:48;;;;;;;;;;;;;;;;;;4347604;33;20013;-86
2023/04/25 03:09:13;;;;;;;;;;;;;;;;;;4349285;33;20267;-86
2023/04/25 03:11:39;;;;;;;;;;;;;;;;;;4346283;33;19947;-86
2023/04/25 03:14:04;;;;;;;;;;;;;;;;;;4346346;33;20301;-86
2023/04/25 03:16:29;;;;;;;;;;;;;;;;;;4345965;33;19984;-86
2023/04/25 03:18:54;;;;;;;;;;;;;;;;;;4345929;32;19982;-86
2023/04/25 03:21:19;;;;;;;;;;;;;;;;;;4345483;33;19982;-86
2023/04/25 03:23:44;;;;;;;;;;;;;;;;;;4347346;33;19950;-86
2023/04/25 03:26:10;;;;;;;;;;;;;;;;;;4346575;33;19935;-86
2023/04/25 03:28:35;;;;;;;;;;;;;;;;;;4346293;33;19939;-87
2023/04/25 03:31:00;;;;;;;;;;;;;;;;;;4346384;33;20006;-86
2023/04/25 03:33:25;;;;;;;;;;;;;;;;;;4345970;33;20339;-86
2023/04/25 03:35:50;;;;;;;;;;;;;;;;;;4345981;33;19945;-86
2023/04/25 03:38:15;;;;;;;;;;;;;;;;;;4345850;33;19943;-86
2023/04/25 03:40:40;;;;;;;;;;;;;;;;;;4346244;33;19949;-87
2023/04/25 03:43:05;;;;;;;;;;;;;;;;;;4345975;33;19938;-86
2023/04/25 03:45:31;;;;;;;;;;;;;;;;;;4353549;33;19987;-86
2023/04/25 03:47:56;;;;;;;;;;;;;;;;;;4360731;33;19935;-85
2023/04/25 03:50:21;;;;;;;;;;;;;;;;;;4355563;33;19942;-85
2023/04/25 03:52:46;;;;;;;;;;;;;;;;;;4356808;33;19947;-86
2023/04/25 03:55:11;;;;;;;;;;;;;;;;;;4367795;32;19938;-86
2023/04/25 03:57:36;;;;;;;;;;;;;;;;;;4361490;32;19977;-87
2023/04/25 04:00:01;;;;;;;;;;;;;;;;;;4359174;32;19942;-86
2023/04/25 04:02:27;;;;;;;;;;;;;;;;;;4358395;32;19931;-86
2023/04/25 04:04:52;;;;;;;;;;;;;;;;;;4358362;32;19953;-87
2023/04/25 04:07:17;;;;;;;;;;;;;;;;;;4359631;32;19953;-86
2023/04/25 04:09:42;;;;;;;;;;;;;;;;;;4358124;32;19965;-87
2023/04/25 04:12:07;;;;;;;;;;;;;;;;;;4358285;32;20311;-86
2023/04/25 04:14:32;;;;;;;;;;;;;;;;;;4363054;32;19922;-84
2023/04/25 04:16:58;;;;;;;;;;;;;;;;;;4372612;32;19939;-85
2023/04/25 04:19:23;;;;;;;;;;;;;;;;;;4361098;32;20342;-85
2023/04/25 04:21:48;;;;;;;;;;;;;;;;;;4360103;32;19935;-85
2023/04/25 04:24:13;;;;;;;;;;;;;;;;;;4368413;32;19934;-84
2023/04/25 04:26:38;;;;;;;;;;;;;;;;;;4363497;32;19985;-85
2023/04/25 04:29:03;;;;;;;;;;;;;;;;;;4359515;32;20304;-86
2023/04/25 04:31:29;;;;;;;;;;;;;;;;;;4359187;32;20263;-85
2023/04/25 04:33:54;;;;;;;;;;;;;;;;;;4359352;32;20320;-87
2023/04/25 04:36:21;;;;;;;;;;;;;;;;;;4358032;32;20409;-86
2023/04/25 04:38:46;;;;;;;;;;;;;;;;;;4358422;32;19935;-87
2023/04/25 04:41:11;;;;;;;;;;;;;;;;;;4359118;32;19938;-87
2023/04/25 04:43:37;;;;;;;;;;;;;;;;;;4362433;32;20311;-87
2023/04/25 04:46:03;;;;;;;;;;;;;;;;;;4361218;32;19941;-85
2023/04/25 04:48:28;;;;;;;;;;;;;;;;;;4368156;32;19950;-86
2023/04/25 04:50:54;;;;;;;;;;;;;;;;;;4368537;32;19955;-85
2023/04/25 04:53:19;;;;;;;;;;;;;;;;;;4372375;32;19958;-84
2023/04/25 04:55:44;;;;;;;;;;;;;;;;;;4372029;32;19935;-85
2023/04/25 04:58:09;;;;;;;;;;;;;;;;;;4359035;32;19985;-85
2023/04/25 05:00:34;;;;;;;;;;;;;;;;;;4360351;32;19982;-88
2023/04/25 05:02:59;;;;;;;;;;;;;;;;;;4361131;32;19950;-85
2023/04/25 05:05:24;;;;;;;;;;;;;;;;;;4350237;32;19938;-87
2023/04/25 05:07:50;;;;;;;;;;;;;;;;;;4361332;32;19947;-86
2023/04/25 05:10:15;;;;;;;;;;;;;;;;;;4361772;32;19934;-82
2023/04/25 05:12:40;;;;;;;;;;;;;;;;;;4367215;32;19957;-85
2023/04/25 05:15:05;;;;;;;;;;;;;;;;;;4368257;32;19939;-84
2023/04/25 05:17:30;;;;;;;;;;;;;;;;;;4366770;32;19957;-85
2023/04/25 05:19:55;;;;;;;;;;;;;;;;;;4364973;32;19945;-83
2023/04/25 05:22:20;;;;;;;;;;;;;;;;;;4364310;32;19949;-83
2023/04/25 05:24:46;;;;;;;;;;;;;;;;;;4368412;32;19939;-84
2023/04/25 05:27:11;;;;;;;;;;;;;;;;;;4367553;32;19942;-84
2023/04/25 05:29:36;;;;;;;;;;;;;;;;;;4371968;32;19935;-84
2023/04/25 05:32:01;;;;;;;;;;;;;;;;;;4369690;32;19945;-84
2023/04/25 05:34:26;;;;;;;;;;;;;;;;;;4361362;32;19934;-84
2023/04/25 05:36:51;;;;;;;;;;;;;;;;;;4360284;32;19942;-86
2023/04/25 05:39:17;;;;;;;;;;;;;;;;;;4360410;32;20225;-85
2023/04/25 05:41:42;;;;;;;;;;;;;;;;;;4361271;32;20018;-85
2023/04/25 05:44:07;;;;;;;;;;;;;;;;;;4360856;32;19953;-85
2023/04/25 05:46:32;;;;;;;;;;;;;;;;;;4360517;32;20337;-86
2023/04/25 05:48:57;;;;;;;;;;;;;;;;;;4361601;32;19938;-85
2023/04/25 05:51:22;;;;;;;;;;;;;;;;;;4364156;32;19935;-84
2023/04/25 05:53:47;;;;;;;;;;;;;;;;;;4367370;32;19995;-86
2023/04/25 05:56:13;;;;;;;;;;;;;;;;;;4369391;32;19935;-89
2023/04/25 05:58:38;;;;;;;;;;;;;;;;;;4365161;32;20002;-84
2023/04/25 06:01:03;;;;;;;;;;;;;;;;;;4363006;32;19935;-82
2023/04/25 06:03:28;;;;;;;;;;;;;;;;;;4350136;33;20055;-80
2023/04/25 06:05:54;;;;;;;;;;;;;;;;;;4347761;32;19946;-80
2023/04/25 06:08:19;;;;;;;;;;;;;;;;;;4358140;32;19969;-82
2023/04/25 06:10:44;;;;;;;;;;;;;;;;;;4358799;32;20255;-81
2023/04/25 06:13:09;;;;;;;;;;;;;;;;;;4348069;32;20241;-82
2023/04/25 06:15:35;;;;;;;;;;;;;;;;;;4348193;32;19949;-81
2023/04/25 06:18:00;;;;;;;;;;;;;;;;;;4352967;32;19974;-80
2023/04/25 06:20:25;;;;;;;;;;;;;;;;;;4349055;32;20015;-81
2023/04/25 06:22:50;;;;;;;;;;;;;;;;;;4348105;32;19943;-81
2023/04/25 06:25:15;;;;;;;;;;;;;;;;;;4355188;32;19950;-80
2023/04/25 06:27:40;;;;;;;;;;;;;;;;;;4351518;33;20005;-80
2023/04/25 06:30:06;;;;;;;;;;;;;;;;;;4348350;33;19943;-81
2023/04/25 06:32:31;;;;;;;;;;;;;;;;;;4347174;32;19953;-81
2023/04/25 06:34:56;;;;;;;;;;;;;;;;;;4358309;32;19970;-80
2023/04/25 06:37:21;;;;;;;;;;;;;;;;;;4346898;32;20396;-80
2023/04/25 06:39:46;;;;;;;;;;;;;;;;;;4346910;32;19949;-81
2023/04/25 06:42:11;;;;;;;;;;;;;;;;;;4358111;32;19977;-79
2023/04/25 06:44:37;;;;;;;;;;;;;;;;;;4347140;33;19935;-81
2023/04/25 06:47:02;;;;;;;;;;;;;;;;;;4359793;32;19989;-81
2023/04/25 06:49:27;;;;;;;;;;;;;;;;;;4346559;32;19993;-80
2023/04/25 06:51:52;;;;;;;;;;;;;;;;;;4358217;32;19943;-79
2023/04/25 06:54:17;;;;;;;;;;;;;;;;;;4347482;32;19955;-80
2023/04/25 06:56:42;;;;;;;;;;;;;;;;;;4347498;33;20316;-80
2023/04/25 06:59:07;;;;;;;;;;;;;;;;;;4351590;33;19946;-81
2023/04/25 07:01:32;;;;;;;;;;;;;;;;;;4353443;33;19934;-81
2023/04/25 07:03:58;;;;;;;;;;;;;;;;;;4347053;33;19950;-80
2023/04/25 07:06:23;;;;;;;;;;;;;;;;;;4346248;33;19935;-80
2023/04/25 07:08:48;;;;;;;;;;;;;;;;;;4344941;33;19986;-80
2023/04/25 07:11:13;;;;;;;;;;;;;;;;;;4346746;33;19934;-79
2023/04/25 07:13:38;;;;;;;;;;;;;;;;;;4345024;33;20066;-81
2023/04/25 07:16:03;;;;;;;;;;;;;;;;;;4346036;33;19954;-80
2023/04/25 07:18:28;;;;;;;;;;;;;;;;;;4347534;33;19971;-81
2023/04/25 07:20:53;;;;;;;;;;;;;;;;;;4346988;33;19939;-81
2023/04/25 07:23:19;;;;;;;;;;;;;;;;;;4346064;33;19981;-83
2023/04/25 07:25:44;;;;;;;;;;;;;;;;;;4349329;33;19935;-82
2023/04/25 07:28:09;;;;;;;;;;;;;;;;;;4354192;33;19971;-82
2023/04/25 07:30:34;;;;;;;;;;;;;;;;;;4353034;33;19931;-82
2023/04/25 07:32:59;;;;;;;;;;;;;;;;;;4344619;33;20029;-82
2023/04/25 07:35:25;;;;;;;;;;;;;;;;;;4346772;33;20284;-83
2023/04/25 07:37:50;;;;;;;;;;;;;;;;;;4347486;33;19987;-83
2023/04/25 07:40:16;;;;;;;;;;;;;;;;;;4346427;33;19947;-85
2023/04/25 07:42:41;;;;;;;;;;;;;;;;;;4347378;33;19969;-85
2023/04/25 07:45:06;;;;;;;;;;;;;;;;;;4349713;33;19946;-85
2023/04/25 07:47:31;;;;;;;;;;;;;;;;;;4348691;33;19981;-84
2023/04/25 07:49:57;;;;;;;;;;;;;;;;;;4348376;33;19994;-83
2023/04/25 07:52:22;;;;;;;;;;;;;;;;;;4357699;33;19931;-84
2023/04/25 07:54:48;;;;;;;;;;;;;;;;;;4355265;33;19935;-84
2023/04/25 07:57:13;;;;;;;;;;;;;;;;;;4348298;33;19942;-84
2023/04/25 07:59:40;;;;;;;;;;;;;;;;;;4346842;33;19967;-84
2023/04/25 08:02:05;;;;;;;;;;;;;;;;;;4347065;33;19931;-84
2023/04/25 08:04:30;;;;;;;;;;;;;;;;;;4349724;33;19953;-84
2023/04/25 08:06:55;;;;;;;;;;;;;;;;;;4350327;33;19945;-85
2023/04/25 08:09:20;;;;;;;;;;;;;;;;;;4348249;33;20320;-84
2023/04/25 08:11:45;;;;;;;;;;;;;;;;;;4349056;33;19977;-85
2023/04/25 08:14:11;;;;;;;;;;;;;;;;;;4347079;33;20331;-85
2023/04/25 08:16:36;;;;;;;;;;;;;;;;;;4346625;33;19950;-84
2023/04/25 08:19:01;;;;;;;;;;;;;;;;;;4347580;33;19943;-83
2023/04/25 08:21:29;;;;;;;;;;;;;;;;;;4358406;33;20260;-84
2023/04/25 08:23:54;;;;;;;;;;;;;;;;;;4347308;33;19978;-84
2023/04/25 08:26:20;;;;;;;;;;;;;;;;;;4346363;33;19969;-85
2023/04/25 08:28:45;;;;;;;;;;;;;;;;;;4347560;33;20308;-84
2023/04/25 08:31:10;;;;;;;;;;;;;;;;;;4347052;33;20279;-83
2023/04/25 08:33:35;;;;;;;;;;;;;;;;;;4349034;33;19951;-84
2023/04/25 08:36:00;;;;;;;;;;;;;;;;;;4352653;33;19981;-83
2023/04/25 08:38:25;;;;;;;;;;;;;;;;;;4353476;33;19935;-84
2023/04/25 08:40:53;;;;;;;;;;;;;;;;;;4352008;33;20275;-84
2023/04/25 08:43:19;;;;;;;;;;;;;;;;;;4356109;33;19950;-83
2023/04/25 08:45:44;;;;;;;;;;;;;;;;;;4353734;33;19977;-84
2023/04/25 08:48:09;;;;;;;;;;;;;;;;;;4354183;33;19935;-83
2023/04/25 08:50:34;;;;;;;;;;;;;;;;;;4352643;33;19943;-84
2023/04/25 08:53:01;;;;;;;;;;;;;;;;;;4352651;33;19971;-84
2023/04/25 08:55:26;;;;;;;;;;;;;;;;;;4350708;32;20295;-82
2023/04/25 08:57:51;;;;;;;;;;;;;;;;;;4350110;33;19989;-83
2023/04/25 09:00:16;;;;;;;;;;;;;;;;;;4350502;33;19943;-83
2023/04/25 09:02:42;;;;;;;;;;;;;;;;;;4349424;33;19939;-84
2023/04/25 09:05:09;;;;;;;;;;;;;;;;;;4357032;33;19950;-84
2023/04/25 09:07:34;;;;;;;;;;;;;;;;;;4357270;33;19942;-82
2023/04/25 09:10:01;;;;;;;;;;;;;;;;;;4350848;33;19972;-82
2023/04/25 09:12:27;;;;;;;;;;;;;;;;;;4351508;33;19935;-81
2023/04/25 09:14:52;;;;;;;;;;;;;;;;;;4349082;33;20062;-81
2023/04/25 09:17:17;;;;;;;;;;;;;;;;;;4348979;33;20313;-83
2023/04/25 09:19:45;;;;;;;;;;;;;;;;;;4348718;33;20328;-82
2023/04/25 09:22:10;;;;;;;;;;;;;;;;;;4348453;33;19966;-83
2023/04/25 09:24:35;;;;;;;;;;;;;;;;;;4350139;33;19999;-82
2023/04/25 09:27:01;;;;;;;;;;;;;;;;;;4349544;33;19981;-83
2023/04/25 09:29:26;;;;;;;;;;;;;;;;;;4349229;33;19954;-83
2023/04/25 09:31:51;;;;;;;;;;;;;;;;;;4350091;33;19981;-83
2023/04/25 09:34:16;;;;;;;;;;;;;;;;;;4348913;33;20283;-84
2023/04/25 09:36:42;;;;;;;;;;;;;;;;;;4348709;33;20064;-83
2023/04/25 09:39:07;;;;;;;;;;;;;;;;;;4350976;33;19949;-83
2023/04/25 09:41:32;;;;;;;;;;;;;;;;;;4352192;33;19935;-84
2023/04/25 09:43:58;;;;;;;;;;;;;;;;;;4350207;33;19949;-83
2023/04/25 09:46:25;;;;;;;;;;;;;;;;;;4350451;33;19942;-84
2023/04/25 09:48:50;;;;;;;;;;;;;;;;;;4349878;33;20315;-82
2023/04/25 09:51:15;;;;;;;;;;;;;;;;;;4352623;33;19954;-83
2023/04/25 09:53:40;;;;;;;;;;;;;;;;;;4352521;33;19939;-83
2023/04/25 09:56:06;;;;;;;;;;;;;;;;;;4352538;33;19977;-84
2023/04/25 09:58:31;;;;;;;;;;;;;;;;;;4347700;33;19989;-81
2023/04/25 10:00:56;;;;;;;;;;;;;;;;;;4346658;33;20299;-85
2023/04/25 10:03:22;;;;;;;;;;;;;;;;;;4347407;33;19950;-83
2023/04/25 10:05:48;;;;;;;;;;;;;;;;;;4346544;33;19946;-82
2023/04/25 10:08:13;;;;;;;;;;;;;;;;;;4353699;33;19954;-82
2023/04/25 10:10:38;;;;;;;;;;;;;;;;;;4357052;33;19939;-82
2023/04/25 10:13:03;;;;;;;;;;;;;;;;;;4347607;33;19977;-83
2023/04/25 10:15:28;;;;;;;;;;;;;;;;;;4352098;33;19939;-81
2023/04/25 10:17:53;;;;;;;;;;;;;;;;;;4351627;33;20006;-80
2023/04/25 10:20:18;;;;;;;;;;;;;;;;;;4354716;33;19961;-82
2023/04/25 10:22:43;;;;;;;;;;;;;;;;;;4355052;33;20337;-81
2023/04/25 10:25:09;;;;;;;;;;;;;;;;;;4357997;33;19990;-81
2023/04/25 10:27:34;;;;;;;;;;;;;;;;;;4356312;33;19942;-81
2023/04/25 10:29:59;;;;;;;;;;;;;;;;;;4354468;33;20296;-82
2023/04/25 10:32:24;;;;;;;;;;;;;;;;;;4349459;33;19973;-80
2023/04/25 10:34:49;;;;;;;;;;;;;;;;;;4350107;33;19982;-82
2023/04/25 10:37:14;;;;;;;;;;;;;;;;;;4347806;33;19957;-82
2023/04/25 10:39:40;;;;;;;;;;;;;;;;;;4347107;33;20103;-81
2023/04/25 10:42:05;;;;;;;;;;;;;;;;;;4348296;33;19958;-81
2023/04/25 10:44:31;;;;;;;;;;;;;;;;;;4347483;33;20346;-81
2023/04/25 10:46:56;;;;;;;;;;;;;;;;;;4346477;33;19977;-82
2023/04/25 10:49:21;;;;;;;;;;;;;;;;;;4347484;33;20301;-83
2023/04/25 10:51:46;;;;;;;;;;;;;;;;;;4349699;33;20256;-82
2023/04/25 10:54:12;;;;;;;;;;;;;;;;;;4348116;33;20316;-82
2023/04/25 10:56:39;;;;;;;;;;;;;;;;;;4348576;33;20027;-82
2023/04/25 10:59:04;;;;;;;;;;;;;;;;;;4347989;33;19935;-81
2023/04/25 11:01:29;;;;;;;;;;;;;;;;;;4347387;33;19957;-81
2023/04/25 11:03:54;;;;;;;;;;;;;;;;;;4345791;33;19969;-81
2023/04/25 11:06:20;;;;;;;;;;;;;;;;;;4347491;33;19935;-81
2023/04/25 11:08:45;;;;;;;;;;;;;;;;;;4347839;33;19935;-80
2023/04/25 11:11:12;;;;;;;;;;;;;;;;;;4347897;33;20236;-80
2023/04/25 11:13:37;;;;;;;;;;;;;;;;;;4351162;33;19982;-81
2023/04/25 11:16:02;;;;;;;;;;;;;;;;;;4349610;33;19946;-82
2023/04/25 11:18:27;;;;;;;;;;;;;;;;;;4347646;33;19961;-82
2023/04/25 11:20:52;;;;;;;;;;;;;;;;;;4354067;33;19973;-82
2023/04/25 11:23:17;;;;;;;;;;;;;;;;;;4352899;33;19993;-82
2023/04/25 11:25:42;;;;;;;;;;;;;;;;;;4350621;33;20327;-82
2023/04/25 11:28:07;;;;;;;;;;;;;;;;;;4347545;33;19935;-82
2023/04/25 11:30:32;;;;;;;;;;;;;;;;;;4347699;33;19938;-81
2023/04/25 11:32:58;;;;;;;;;;;;;;;;;;4346974;33;19959;-81
2023/04/25 11:35:25;;;;;;;;;;;;;;;;;;4347873;33;19934;-82
2023/04/25 11:37:50;;;;;;;;;;;;;;;;;;4353082;33;20347;-81
2023/04/25 11:40:15;;;;;;;;;;;;;;;;;;4348876;33;19985;-83
2023/04/25 11:42:40;;;;;;;;;;;;;;;;;;4348579;33;20295;-82
2023/04/25 11:45:06;;;;;;;;;;;;;;;;;;4348118;33;20000;-83
2023/04/25 11:47:31;;;;;;;;;;;;;;;;;;4346326;33;19943;-82
2023/04/25 11:49:56;;;;;;;;;;;;;;;;;;4347817;33;19934;-81
2023/04/25 11:52:21;;;;;;;;;;;;;;;;;;4346031;33;19959;-81
2023/04/25 11:54:46;;;;;;;;;;;;;;;;;;4347660;33;19954;-81
2023/04/25 11:57:11;;;;;;;;;;;;;;;;;;4346907;33;19981;-82
2023/04/25 11:59:36;;;;;;;;;;;;;;;;;;4345699;33;19935;-80
2023/04/25 12:02:01;;;;;;;;;;;;;;;;;;4346168;33;19969;-80
2023/04/25 12:04:26;;;;;;;;;;;;;;;;;;4347435;33;20252;-81
2023/04/25 12:06:52;;;;;;;;;;;;;;;;;;4348118;33;19939;-82
2023/04/25 12:09:18;;;;;;;;;;;;;;;;;;4348466;33;19947;-80
2023/04/25 12:11:43;;;;;;;;;;;;;;;;;;4349833;32;19935;-81
2023/04/25 12:14:09;;;;;;;;;;;;;;;;;;4350300;33;19938;-81
2023/04/25 12:16:34;;;;;;;;;;;;;;;;;;4349002;33;19945;-80
2023/04/25 12:18:59;;;;;;;;;;;;;;;;;;4350549;33;19939;-80
2023/04/25 12:21:24;;;;;;;;;;;;;;;;;;4348528;33;19978;-81
2023/04/25 12:23:49;;;;;;;;;;;;;;;;;;4351049;33;20264;-80
2023/04/25 12:26:15;;;;;;;;;;;;;;;;;;4348851;33;19943;-80
2023/04/25 12:28:40;;;;;;;;;;;;;;;;;;4349390;32;19935;-81
2023/04/25 12:31:05;;;;;;;;;;;;;;;;;;4347599;33;19934;-81
2023/04/25 12:33:30;;;;;;;;;;;;;;;;;;4348309;33;20300;-81
2023/04/25 12:35:55;;;;;;;;;;;;;;;;;;4347638;33;20006;-80
2023/04/25 12:38:21;;;;;;;;;;;;;;;;;;4347447;33;19954;-81
2023/04/25 12:40:46;;;;;;;;;;;;;;;;;;4347180;33;19953;-81
2023/04/25 12:43:11;;;;;;;;;;;;;;;;;;4346881;33;19977;-81
2023/04/25 12:45:36;;;;;;;;;;;;;;;;;;4348620;33;19999;-80
2023/04/25 12:48:01;;;;;;;;;;;;;;;;;;4349533;33;19943;-81
2023/04/25 12:50:26;;;;;;;;;;;;;;;;;;4347881;33;19950;-81
2023/04/25 12:52:51;;;;;;;;;;;;;;;;;;4348030;33;20268;-81
2023/04/25 12:55:17;;;;;;;;;;;;;;;;;;4348724;33;19938;-80
2023/04/25 12:57:42;;;;;;;;;;;;;;;;;;4349073;33;20006;-81
2023/04/25 13:00:14;;;;;;;;;;;;;;;;;;4351189;33;19939;-82
2023/04/25 13:02:39;;;;;;;;;;;;;;;;;;4352722;33;19966;-81
2023/04/25 13:05:05;;;;;;;;;;;;;;;;;;4349926;33;19986;-80
2023/04/25 13:07:30;;;;;;;;;;;;;;;;;;4348290;33;19953;-81
2023/04/25 13:09:55;;;;;;;;;;;;;;;;;;4347836;33;20276;-80
2023/04/25 13:12:21;;;;;;;;;;;;;;;;;;4348167;33;20364;-80
2023/04/25 13:14:46;;;;;;;;;;;;;;;;;;4348423;33;19949;-80
2023/04/25 13:17:11;;;;;;;;;;;;;;;;;;4346447;33;20002;-80
2023/04/25 13:19:36;;;;;;;;;;;;;;;;;;4349294;33;20306;-80
2023/04/25 13:22:04;;;;;;;;;;;;;;;;;;4350237;33;19981;-79
2023/04/25 13:24:29;;;;;;;;;;;;;;;;;;4347508;33;19949;-79
2023/04/25 13:26:54;;;;;;;;;;;;;;;;;;4347570;33;19939;-79
2023/04/25 13:29:19;;;;;;;;;;;;;;;;;;4347559;33;19982;-78
2023/04/25 13:31:44;;;;;;;;;;;;;;;;;;4346838;33;19935;-80
2023/04/25 13:34:12;;;;;;;;;;;;;;;;;;4347968;33;19974;-79
2023/04/25 13:36:37;;;;;;;;;;;;;;;;;;4352747;33;19943;-80
2023/04/25 13:39:03;;;;;;;;;;;;;;;;;;4351458;33;19942;-80
2023/04/25 13:41:28;;;;;;;;;;;;;;;;;;4349155;33;19939;-80
2023/04/25 13:43:54;;;;;;;;;;;;;;;;;;4348069;33;19935;-79
2023/04/25 13:46:19;;;;;;;;;;;;;;;;;;4347528;33;19950;-80
2023/04/25 13:48:46;;;;;;;;;;;;;;;;;;4347121;33;19985;-80
2023/04/25 13:51:11;;;;;;;;;;;;;;;;;;4347895;33;20263;-81
2023/04/25 13:53:36;;;;;;;;;;;;;;;;;;4347121;33;19939;-80
2023/04/25 13:56:01;;;;;;;;;;;;;;;;;;4347460;33;19968;-80
2023/04/25 13:58:26;;;;;;;;;;;;;;;;;;4347102;33;19938;-80
2023/04/25 14:00:51;;;;;;;;;;;;;;;;;;4347113;33;19949;-80
2023/04/25 14:03:16;;;;;;;;;;;;;;;;;;4346621;33;19974;-79
2023/04/25 14:05:42;;;;;;;;;;;;;;;;;;4346113;33;19993;-78
2023/04/25 14:08:07;;;;;;;;;;;;;;;;;;4347465;33;19938;-80
2023/04/25 14:10:32;;;;;;;;;;;;;;;;;;4347607;33;19953;-80
2023/04/25 14:12:57;;;;;;;;;;;;;;;;;;4347048;33;20334;-80
2023/04/25 14:15:22;;;;;;;;;;;;;;;;;;4347483;33;19938;-80
2023/04/25 14:17:48;;;;;;;;;;;;;;;;;;4347292;33;19994;-80
2023/04/25 14:20:13;;;;;;;;;;;;;;;;;;4347220;33;19975;-81
2023/04/25 14:22:42;;;;;;;;;;;;;;;;;;4346959;33;19936;-81
2023/04/25 14:25:07;;;;;;;;;;;;;;;;;;4346898;33;19942;-80
2023/04/25 14:27:32;;;;;;;;;;;;;;;;;;4347692;33;19986;-79
2023/04/25 14:29:58;;;;;;;;;;;;;;;;;;4347293;33;19977;-79
2023/04/25 14:32:23;;;;;;;;;;;;;;;;;;4346181;33;19968;-80
2023/04/25 14:34:48;;;;;;;;;;;;;;;;;;4348117;33;20275;-81
2023/04/25 14:37:13;;;;;;;;;;;;;;;;;;4347276;33;19946;-80
2023/04/25 14:39:38;;;;;;;;;;;;;;;;;;4346630;33;19970;-81
2023/04/25 14:42:03;;;;;;;;;;;;;;;;;;4346660;33;19939;-80
2023/04/25 14:44:28;;;;;;;;;;;;;;;;;;4346525;33;19951;-80
2023/04/25 14:46:53;;;;;;;;;;;;;;;;;;4345100;33;19938;-80
2023/04/25 14:49:19;;;;;;;;;;;;;;;;;;4345275;33;19999;-81
2023/04/25 14:51:44;;;;;;;;;;;;;;;;;;4346840;33;19935;-81
2023/04/25 14:54:10;;;;;;;;;;;;;;;;;;4346358;33;19954;-80
2023/04/25 14:56:35;;;;;;;;;;;;;;;;;;4344955;33;19999;-81
2023/04/25 14:59:01;;;;;;;;;;;;;;;;;;4346674;33;19939;-79
2023/04/25 15:01:26;;;;;;;;;;;;;;;;;;4346592;33;19994;-79
2023/04/25 15:03:51;;;;;;;;;;;;;;;;;;4347353;33;19938;-80
2023/04/25 15:06:16;;;;;;;;;;;;;;;;;;4345564;33;19939;-80
2023/04/25 15:08:41;;;;;;;;;;;;;;;;;;4346471;33;19958;-80
2023/04/25 15:11:06;;;;;;;;;;;;;;;;;;4345207;33;19997;-79
2023/04/25 15:13:31;;;;;;;;;;;;;;;;;;4346128;33;19939;-80
2023/04/25 15:15:56;;;;;;;;;;;;;;;;;;4346692;33;19942;-80
2023/04/25 15:18:23;;;;;;;;;;;;;;;;;;4346833;33;20079;-80
2023/04/25 15:20:48;;;;;;;;;;;;;;;;;;4346994;33;19953;-80
2023/04/25 15:23:13;;;;;;;;;;;;;;;;;;4347821;33;19942;-80
2023/04/25 15:25:38;;;;;;;;;;;;;;;;;;4351149;33;19949;-80
2023/04/25 15:28:04;;;;;;;;;;;;;;;;;;4352839;33;19972;-80
2023/04/25 15:30:29;;;;;;;;;;;;;;;;;;4351597;33;19950;-81
2023/04/25 15:32:55;;;;;;;;;;;;;;;;;;4350519;33;19947;-78
2023/04/25 15:35:20;;;;;;;;;;;;;;;;;;4348660;33;19988;-79
2023/04/25 15:37:45;;;;;;;;;;;;;;;;;;4351625;33;20354;-80
2023/04/25 15:40:10;;;;;;;;;;;;;;;;;;4346175;33;20317;-80
2023/04/25 15:42:36;;;;;;;;;;;;;;;;;;4346647;33;19953;-80
2023/04/25 15:45:01;;;;;;;;;;;;;;;;;;4344800;33;20002;-80
2023/04/25 15:47:26;;;;;;;;;;;;;;;;;;4346750;33;20350;-79
2023/04/25 15:49:51;;;;;;;;;;;;;;;;;;4346895;33;19939;-79
2023/04/25 15:52:20;;;;;;;;;;;;;;;;;;4344795;32;19963;-79
2023/04/25 15:54:45;;;;;;;;;;;;;;;;;;4345404;33;20221;-80
2023/04/25 15:57:11;;;;;;;;;;;;;;;;;;4345349;33;20276;-80
2023/04/25 15:59:37;;;;;;;;;;;;;;;;;;4346332;33;19943;-78
2023/04/25 16:02:02;;;;;;;;;;;;;;;;;;4344631;33;19949;-80
2023/04/25 16:04:34;;;;;;;;;;;;;;;;;;4345111;33;19954;-79
2023/04/25 16:06:59;;;;;;;;;;;;;;;;;;4344856;33;19939;-79
2023/04/25 16:09:24;;;;;;;;;;;;;;;;;;4345536;33;19935;-80
2023/04/25 16:11:49;;;;;;;;;;;;;;;;;;4345642;33;19955;-78
2023/04/25 16:14:15;;;;;;;;;;;;;;;;;;4346664;33;20256;-80
2023/04/25 16:16:40;;;;;;;;;;;;;;;;;;4344292;33;19995;-79
2023/04/25 16:19:05;;;;;;;;;;;;;;;;;;4346589;33;19945;-79
2023/04/25 16:21:30;;;;;;;;;;;;;;;;;;4347469;33;20293;-79
2023/04/25 16:23:56;;;;;;;;;;;;;;;;;;4347526;33;19934;-78
2023/04/25 16:26:21;;;;;;;;;;;;;;;;;;4346441;33;19973;-80
2023/04/25 16:28:46;;;;;;;;;;;;;;;;;;4344596;33;19971;-81
2023/04/25 16:31:11;;;;;;;;;;;;;;;;;;4344545;33;19970;-79